You are listening to:
RJAA Ramp #1 - Tokyo, Japan

RJAA 181330Z 11003KT 9999 FEW030 BKN/// 15/15 Q1019 NOSIG RMK 1CU030 A3009

If stream doesn't start automatically press the play button
If stream stops then reload player then press play